Time;durP1;ratioP1;P1;durP2;ratioP2;P2;SDS_P1;SDS_P2;PMS_P1;PMS_P2;Temp;Humidity;BMP_temperature;BMP_pressure;BME280_temperature;BME280_humidity;BME280_pressure;Samples;Min_cycle;Max_cycle;Signal;HPM_P1;HPM_P2
2022/03/03 00:01:59;;;;;;;23.40;12.23;;;-1.20;99.90;;;;;;4974759;28;20198;-72
2022/03/03 00:04:25;;;;;;;24.30;12.67;;;-1.30;99.90;;;;;;4991242;28;20444;-72
2022/03/03 00:06:50;;;;;;;21.30;13.23;;;-1.20;99.90;;;;;;4993828;28;20180;-72
2022/03/03 00:09:16;;;;;;;17.73;11.40;;;-1.30;99.90;;;;;;4975925;28;20173;-72
2022/03/03 00:11:42;;;;;;;21.30;13.17;;;-1.30;99.90;;;;;;4993042;28;20195;-72
2022/03/03 00:14:07;;;;;;;17.10;12.37;;;-1.30;99.90;;;;;;4992657;28;20182;-71
2022/03/03 00:16:33;;;;;;;23.63;12.70;;;-1.30;99.90;;;;;;4991223;28;20628;-71
2022/03/03 00:18:59;;;;;;;18.53;12.63;;;-1.30;99.90;;;;;;4975531;28;20173;-72
2022/03/03 00:21:24;;;;;;;22.67;12.73;;;-1.30;99.90;;;;;;4991855;28;20206;-72
2022/03/03 00:23:50;;;;;;;28.77;14.20;;;-1.30;99.90;;;;;;4990876;28;20232;-72
2022/03/03 00:26:16;;;;;;;19.17;11.63;;;-1.40;99.90;;;;;;4992926;28;20175;-72
2022/03/03 00:28:42;;;;;;;26.53;13.20;;;-1.40;99.90;;;;;;4958845;28;20463;-72
2022/03/03 00:31:08;;;;;;;18.80;12.30;;;-1.40;99.90;;;;;;4991799;28;20906;-70
2022/03/03 00:33:33;;;;;;;21.47;12.30;;;-1.40;99.90;;;;;;4990484;28;20207;-71
2022/03/03 00:35:59;;;;;;;21.23;13.37;;;-1.40;99.90;;;;;;4975615;28;20220;-72
2022/03/03 00:38:25;;;;;;;21.30;13.43;;;-1.40;99.90;;;;;;4992844;28;20555;-72
2022/03/03 00:40:51;;;;;;;26.37;13.53;;;-1.40;99.90;;;;;;4990764;28;20393;-71
2022/03/03 00:43:16;;;;;;;24.30;13.20;;;-1.50;99.90;;;;;;4974313;28;20265;-71
2022/03/03 00:45:42;;;;;;;22.90;12.07;;;-1.50;99.90;;;;;;4991408;28;20273;-72
2022/03/03 00:48:08;;;;;;;18.87;11.77;;;-1.50;99.90;;;;;;4991248;28;20193;-70
2022/03/03 00:50:33;;;;;;;21.30;12.33;;;-1.60;99.90;;;;;;4992146;28;20179;-73
2022/03/03 00:52:59;;;;;;;17.10;10.80;;;-1.60;99.90;;;;;;4991489;28;20249;-74
2022/03/03 00:55:25;;;;;;;18.40;12.13;;;-1.60;99.90;;;;;;4992517;28;20701;-74
2022/03/03 00:57:50;;;;;;;22.27;13.00;;;-1.60;99.90;;;;;;4991172;28;20540;-73
2022/03/03 05:32:08;;;;;;;32.07;14.90;;;-3.10;99.90;;;;;;5413047;22;20547;-72
2022/03/03 05:34:33;;;;;;;22.83;14.93;;;-3.10;99.90;;;;;;4971104;28;20480;-74
2022/03/03 05:37:00;;;;;;;28.27;15.30;;;-3.10;99.90;;;;;;4972091;28;20188;-75
2022/03/03 05:39:27;;;;;;;26.73;15.30;;;-3.10;99.90;;;;;;4972265;28;20180;-74
2022/03/03 05:41:55;;;;;;;25.70;14.90;;;-3.10;99.90;;;;;;4972554;28;21047;-74
2022/03/03 05:44:21;;;;;;;30.07;14.80;;;-3.10;99.90;;;;;;4971614;28;20408;-74
2022/03/03 05:46:48;;;;;;;23.07;14.03;;;-3.10;99.90;;;;;;4972571;28;21201;-75
2022/03/03 05:49:16;;;;;;;25.63;15.10;;;-3.00;99.90;;;;;;4971838;28;20420;-74
2022/03/03 05:51:41;;;;;;;33.50;15.90;;;-3.10;99.90;;;;;;4972280;28;20990;-74
2022/03/03 05:54:07;;;;;;;29.03;15.10;;;-3.10;99.90;;;;;;4971506;28;20423;-74
2022/03/03 05:56:37;;;;;;;23.33;14.00;;;-3.10;99.90;;;;;;4971737;28;20212;-74
2022/03/03 05:59:06;;;;;;;25.73;14.03;;;-3.10;99.90;;;;;;4972517;28;20717;-73
2022/03/03 06:01:34;;;;;;;26.23;17.33;;;-3.10;99.90;;;;;;4970971;28;20415;-73
2022/03/03 06:04:00;;;;;;;23.63;14.77;;;-3.10;99.90;;;;;;4971501;28;20391;-76
2022/03/03 06:06:31;;;;;;;31.10;16.67;;;-3.10;99.90;;;;;;4973305;28;20466;-75
2022/03/03 06:09:09;;;;;;;26.30;15.53;;;-3.10;99.90;;;;;;4974267;28;20453;-76
2022/03/03 06:11:49;;;;;;;30.00;15.07;;;-3.00;99.90;;;;;;4988148;28;20507;-75
2022/03/03 06:14:23;;;;;;;27.60;14.77;;;-2.90;99.90;;;;;;4972912;28;20739;-76
2022/03/03 06:16:50;;;;;;;33.87;17.67;;;-2.90;99.90;;;;;;4972768;28;21013;-75
2022/03/03 06:19:19;;;;;;;33.10;15.60;;;-2.90;99.90;;;;;;4972612;28;20901;-75
2022/03/03 06:21:44;;;;;;;32.47;15.57;;;-2.80;99.90;;;;;;4972229;28;20451;-75
2022/03/03 06:24:10;;;;;;;32.97;14.97;;;-2.70;99.90;;;;;;4971870;28;20395;-74
2022/03/03 06:26:36;;;;;;;28.43;14.60;;;-2.60;99.90;;;;;;4970937;28;20192;-76
2022/03/03 06:29:02;;;;;;;26.80;15.37;;;-2.50;99.90;;;;;;4971274;28;20569;-76
2022/03/03 06:31:28;;;;;;;31.27;16.47;;;-2.50;99.90;;;;;;4971232;28;20208;-74
2022/03/03 06:33:54;;;;;;;31.67;14.90;;;-2.40;99.90;;;;;;4971757;28;20407;-75
2022/03/03 06:36:20;;;;;;;31.27;17.27;;;-2.30;99.90;;;;;;4971926;28;20216;-75
2022/03/03 06:38:45;;;;;;;29.43;16.00;;;-2.30;99.90;;;;;;4972808;28;20555;-76
2022/03/03 06:41:11;;;;;;;28.50;16.57;;;-2.10;99.90;;;;;;4971548;28;20496;-74
2022/03/03 06:43:37;;;;;;;30.73;16.03;;;-2.00;99.90;;;;;;4971078;28;20178;-75
2022/03/03 06:46:04;;;;;;;21.00;15.10;;;-1.90;99.90;;;;;;4977161;28;20751;-76
2022/03/03 06:48:30;;;;;;;23.47;15.00;;;-1.90;99.90;;;;;;4990695;28;20196;-76
2022/03/03 06:50:56;;;;;;;24.97;15.40;;;-1.70;99.90;;;;;;4990878;28;20997;-76
2022/03/03 06:53:30;;;;;;;28.97;15.90;;;-1.60;99.90;;;;;;4990450;28;20654;-76
2022/03/03 06:56:05;;;;;;;26.10;14.67;;;-1.50;99.90;;;;;;4991072;28;20435;-75
2022/03/03 06:58:32;;;;;;;33.33;16.53;;;-1.40;99.90;;;;;;4990824;28;20670;-76
2022/03/03 07:00:58;;;;;;;49.13;15.77;;;-1.30;99.90;;;;;;4990448;28;20443;-76
2022/03/03 07:03:24;;;;;;;27.07;15.13;;;-1.10;99.90;;;;;;4990165;28;20414;-76
2022/03/03 07:05:51;;;;;;;36.93;17.27;;;-1.00;99.90;;;;;;4991003;28;20392;-76
2022/03/03 07:08:19;;;;;;;41.73;16.80;;;-0.60;99.90;;;;;;4992801;28;20593;-76
2022/03/03 07:10:47;;;;;;;23.23;15.87;;;0.30;99.90;;;;;;4993477;28;20503;-75
2022/03/03 07:13:16;;;;;;;33.33;18.07;;;2.20;99.90;;;;;;4994064;28;20492;-75
2022/03/03 07:15:50;;;;;;;25.43;14.83;;;4.30;99.90;;;;;;4993984;28;20450;-74
2022/03/03 07:18:19;;;;;;;22.60;15.73;;;6.30;99.90;;;;;;4994148;28;20497;-74
2022/03/03 07:21:09;;;;;;;28.70;15.93;;;7.50;99.90;;;;;;4993923;28;20498;-74
2022/03/03 07:23:44;;;;;;;22.97;16.63;;;8.90;99.90;;;;;;4994182;28;20405;-74
2022/03/03 07:26:13;;;;;;;26.03;17.93;;;9.30;99.90;;;;;;4993646;28;20432;-74
2022/03/03 07:28:40;;;;;;;26.43;18.50;;;9.40;99.90;;;;;;4990341;28;20824;-74
2022/03/03 07:31:07;;;;;;;31.97;18.47;;;10.20;99.90;;;;;;4993805;28;20529;-74
2022/03/03 07:33:55;;;;;;;36.10;19.97;;;10.60;99.90;;;;;;4992789;28;20738;-74
2022/03/03 07:36:28;;;;;;;29.27;20.10;;;11.10;99.90;;;;;;4982337;28;20462;-73
2022/03/03 07:38:58;;;;;;;35.70;19.17;;;12.10;99.90;;;;;;4974246;28;20431;-74
2022/03/03 07:41:25;;;;;;;31.20;18.90;;;12.30;99.90;;;;;;4973188;28;20451;-73
2022/03/03 07:43:53;;;;;;;41.87;20.20;;;11.80;99.90;;;;;;4973695;28;20420;-74
2022/03/03 07:46:18;;;;;;;26.73;19.60;;;12.30;99.90;;;;;;4972194;28;20496;-74
2022/03/03 07:48:46;;;;;;;31.30;20.03;;;12.10;99.90;;;;;;4973679;28;20920;-74
2022/03/03 07:51:12;;;;;;;29.77;20.83;;;11.70;99.90;;;;;;4973797;28;20200;-74
2022/03/03 07:53:37;;;;;;;30.73;21.03;;;11.10;99.90;;;;;;4972940;28;20446;-74
2022/03/03 07:56:04;;;;;;;32.37;21.20;;;10.60;99.90;;;;;;4973460;28;20465;-74
2022/03/03 07:58:33;;;;;;;43.30;20.50;;;10.00;99.90;;;;;;4969908;28;20191;-71
2022/03/03 08:01:01;;;;;;;25.83;19.87;;;9.50;99.90;;;;;;4973341;28;20460;-72
2022/03/03 08:03:27;;;;;;;34.33;22.43;;;9.00;99.90;;;;;;4972752;28;20559;-74
2022/03/03 08:05:55;;;;;;;33.13;19.83;;;8.70;99.90;;;;;;4973558;28;20524;-75
2022/03/03 08:08:24;;;;;;;38.63;20.53;;;8.40;99.90;;;;;;4973473;28;20575;-74
2022/03/03 08:10:55;;;;;;;33.47;22.17;;;8.50;99.90;;;;;;4973696;28;20428;-75
2022/03/03 08:13:24;;;;;;;34.77;21.77;;;8.60;99.90;;;;;;4972592;28;21002;-74
2022/03/03 08:15:50;;;;;;;35.67;21.70;;;8.60;99.90;;;;;;4973438;28;20469;-75
2022/03/03 08:18:16;;;;;;;39.43;21.27;;;8.80;99.90;;;;;;4973755;28;20408;-75
2022/03/03 08:20:41;;;;;;;30.03;19.63;;;8.90;99.90;;;;;;4973292;28;20790;-74
2022/03/03 08:23:08;;;;;;;36.33;20.93;;;9.00;99.90;;;;;;4972257;28;20213;-75
2022/03/03 08:25:35;;;;;;;33.30;19.67;;;8.90;99.90;;;;;;4973299;28;20210;-76
2022/03/03 08:28:02;;;;;;;36.47;22.00;;;8.90;99.90;;;;;;4973102;28;20492;-74
2022/03/03 08:30:28;;;;;;;39.27;21.67;;;9.10;99.90;;;;;;4973139;28;20500;-75
2022/03/03 08:33:13;;;;;;;37.93;21.23;;;9.10;99.90;;;;;;4972830;28;20547;-75
2022/03/03 08:35:41;;;;;;;35.97;21.17;;;9.40;99.90;;;;;;4973097;28;20475;-74
2022/03/03 08:38:28;;;;;;;30.60;20.70;;;9.10;99.90;;;;;;4973076;28;20426;-75
2022/03/03 08:40:57;;;;;;;34.97;21.30;;;9.10;99.90;;;;;;4973390;28;20802;-75
2022/03/03 08:43:24;;;;;;;37.97;22.50;;;9.00;99.90;;;;;;4972344;28;20413;-75
2022/03/03 08:45:50;;;;;;;33.93;21.60;;;9.00;99.90;;;;;;4973268;28;20480;-75
2022/03/03 08:48:18;;;;;;;40.87;22.83;;;9.20;99.90;;;;;;4973076;28;20418;-75
2022/03/03 08:50:43;;;;;;;34.40;21.53;;;9.30;99.90;;;;;;4972111;28;20428;-75
2022/03/03 08:53:10;;;;;;;59.23;24.63;;;9.40;99.90;;;;;;4972420;28;20418;-75
2022/03/03 08:55:38;;;;;;;35.87;22.87;;;9.50;99.90;;;;;;4972836;28;20692;-77
2022/03/03 08:58:05;;;;;;;39.33;22.33;;;9.80;99.90;;;;;;4972929;28;20417;-75
2022/03/03 09:00:31;;;;;;;37.47;20.50;;;9.80;99.90;;;;;;4972820;28;20429;-75
2022/03/03 09:02:58;;;;;;;27.90;20.50;;;9.90;99.90;;;;;;4972169;28;20448;-75
2022/03/03 09:05:23;;;;;;;31.87;21.40;;;9.90;99.90;;;;;;4971111;28;20659;-74
2022/03/03 09:07:49;;;;;;;36.13;20.57;;;10.10;99.90;;;;;;4972646;28;20428;-75
2022/03/03 09:10:15;;;;;;;36.70;21.83;;;10.20;99.90;;;;;;4971507;28;20183;-75
2022/03/03 09:12:42;;;;;;;36.53;21.00;;;10.20;99.90;;;;;;4972693;28;20210;-74
2022/03/03 09:15:08;;;;;;;41.23;21.83;;;10.20;99.90;;;;;;4971468;28;20469;-75
2022/03/03 09:17:35;;;;;;;33.20;21.00;;;10.40;99.90;;;;;;4972515;28;20420;-75
2022/03/03 09:20:06;;;;;;;32.90;20.10;;;10.60;99.90;;;;;;4972427;28;20517;-74
2022/03/03 09:22:31;;;;;;;34.63;22.03;;;10.90;99.90;;;;;;4972051;28;20448;-75
2022/03/03 09:24:57;;;;;;;47.77;22.60;;;10.80;99.90;;;;;;4972045;28;20429;-76
2022/03/03 09:27:23;;;;;;;34.47;21.43;;;10.60;99.90;;;;;;4972367;28;20268;-75
2022/03/03 09:29:49;;;;;;;38.80;21.83;;;10.70;99.90;;;;;;4971580;28;20220;-76
2022/03/03 09:32:15;;;;;;;38.53;23.40;;;10.90;99.90;;;;;;4972482;28;20235;-76
2022/03/03 09:34:40;;;;;;;29.20;21.20;;;10.90;99.90;;;;;;4971184;28;20434;-75
2022/03/03 09:37:06;;;;;;;34.10;21.23;;;11.30;99.90;;;;;;4972457;28;20184;-75
2022/03/03 09:39:32;;;;;;;31.90;21.13;;;11.50;99.90;;;;;;4971655;28;20188;-76
2022/03/03 09:41:58;;;;;;;33.53;22.60;;;11.90;99.90;;;;;;4972274;28;20602;-75
2022/03/03 09:44:25;;;;;;;32.77;20.53;;;12.10;99.90;;;;;;4971432;28;20179;-75
2022/03/03 09:46:51;;;;;;;31.00;19.87;;;12.40;99.90;;;;;;4972376;28;20426;-76
2022/03/03 09:49:18;;;;;;;28.40;20.50;;;12.40;99.90;;;;;;4971558;28;20434;-76
2022/03/03 09:51:44;;;;;;;36.73;20.57;;;12.60;99.90;;;;;;4971715;28;20536;-75
2022/03/03 09:54:10;;;;;;;28.43;19.60;;;12.80;99.90;;;;;;4971652;28;20435;-76
2022/03/03 09:56:37;;;;;;;30.73;20.33;;;12.70;99.90;;;;;;4971327;28;20467;-75
2022/03/03 09:59:03;;;;;;;29.60;21.40;;;12.80;99.90;;;;;;4972107;28;20176;-75
2022/03/03 10:01:32;;;;;;;28.50;20.50;;;12.70;99.90;;;;;;4971668;28;20455;-75
2022/03/03 10:04:12;;;;;;;27.70;21.17;;;12.70;99.90;;;;;;4971660;28;20518;-75
2022/03/03 10:06:42;;;;;;;34.07;20.87;;;13.00;99.90;;;;;;4971692;28;20451;-75
2022/03/03 10:09:09;;;;;;;31.73;20.50;;;12.70;99.90;;;;;;4972226;28;20435;-76
2022/03/03 10:11:59;;;;;;;35.87;20.53;;;12.70;99.90;;;;;;4971233;28;20439;-76
2022/03/03 10:14:30;;;;;;;32.30;21.43;;;12.30;99.90;;;;;;4956472;28;20514;-76
2022/03/03 10:16:56;;;;;;;29.70;20.73;;;12.70;99.90;;;;;;4973316;28;20537;-76
2022/03/03 10:19:22;;;;;;;31.33;19.90;;;12.40;99.90;;;;;;4972479;28;21047;-75
2022/03/03 10:21:48;;;;;;;33.23;22.03;;;12.80;99.90;;;;;;4969938;28;20447;-76
2022/03/03 10:24:21;;;;;;;25.37;18.90;;;13.00;99.90;;;;;;4971098;28;20416;-76
2022/03/03 10:26:54;;;;;;;27.53;18.90;;;13.10;99.90;;;;;;4972067;28;20181;-76
2022/03/03 10:29:21;;;;;;;31.47;20.07;;;13.40;99.90;;;;;;4971874;28;20417;-76
2022/03/03 10:31:52;;;;;;;24.57;18.80;;;14.10;99.90;;;;;;4971104;28;20485;-76
2022/03/03 10:34:30;;;;;;;31.00;20.57;;;14.30;98.60;;;;;;4971287;28;20423;-76
2022/03/03 10:36:59;;;;;;;27.27;19.03;;;14.30;97.30;;;;;;4971789;28;20471;-76
2022/03/03 10:39:36;;;;;;;25.40;18.20;;;14.30;97.80;;;;;;4971364;28;20426;-76
2022/03/03 10:42:15;;;;;;;29.40;20.07;;;14.90;98.80;;;;;;4972046;28;20430;-76
2022/03/03 10:44:41;;;;;;;26.10;18.63;;;15.10;97.10;;;;;;4974670;28;20446;-75
2022/03/03 10:47:13;;;;;;;33.93;20.37;;;14.90;95.40;;;;;;4975695;28;20829;-76
2022/03/03 10:49:41;;;;;;;25.70;19.77;;;15.10;97.20;;;;;;4975052;28;20693;-75
2022/03/03 10:52:17;;;;;;;24.43;19.67;;;15.30;94.70;;;;;;4975677;28;20429;-76
2022/03/03 10:54:54;;;;;;;26.30;19.13;;;15.40;94.60;;;;;;4974541;28;20415;-76
2022/03/03 10:57:30;;;;;;;26.80;20.50;;;15.50;94.60;;;;;;4975000;28;20415;-76
2022/03/03 10:59:58;;;;;;;28.67;19.90;;;15.60;94.70;;;;;;4975361;28;20494;-76
2022/03/03 11:02:27;;;;;;;24.17;19.57;;;15.40;94.50;;;;;;4975118;28;20965;-76
2022/03/03 11:04:53;;;;;;;29.60;21.23;;;14.80;93.10;;;;;;4974693;28;20423;-76
2022/03/03 11:07:20;;;;;;;31.40;20.50;;;14.50;95.20;;;;;;4975578;28;20423;-76
2022/03/03 11:09:46;;;;;;;31.17;20.90;;;14.60;95.30;;;;;;4974998;28;20453;-76
2022/03/03 11:12:13;;;;;;;34.97;19.57;;;15.10;95.30;;;;;;4974909;28;20450;-76
2022/03/03 11:14:39;;;;;;;27.20;18.90;;;15.20;93.90;;;;;;4974435;28;20183;-76
2022/03/03 11:17:06;;;;;;;27.00;19.53;;;15.10;95.20;;;;;;4975133;28;20562;-76
2022/03/03 11:19:32;;;;;;;24.70;18.80;;;15.10;92.60;;;;;;4974668;28;20429;-76
2022/03/03 11:21:57;;;;;;;29.60;20.00;;;15.10;93.30;;;;;;4974546;28;20435;-76
2022/03/03 11:24:24;;;;;;;27.67;20.23;;;14.90;93.90;;;;;;4974023;28;20176;-75
2022/03/03 11:26:50;;;;;;;31.77;20.50;;;14.90;93.20;;;;;;4975023;28;20210;-76
2022/03/03 11:29:20;;;;;;;28.60;20.47;;;14.50;92.60;;;;;;4974766;28;21047;-78
2022/03/03 11:32:04;;;;;;;27.07;18.70;;;14.00;92.10;;;;;;4974782;28;20860;-76
2022/03/03 11:34:30;;;;;;;32.33;19.57;;;13.80;92.90;;;;;;4973806;28;20503;-76
2022/03/03 11:37:17;;;;;;;31.40;20.30;;;13.80;93.60;;;;;;4974678;28;20467;-75
2022/03/03 11:40:03;;;;;;;35.50;21.10;;;13.60;93.20;;;;;;4972974;28;21010;-75
2022/03/03 11:42:36;;;;;;;34.70;22.20;;;13.40;93.30;;;;;;4974036;28;20863;-76
2022/03/03 11:45:33;;;;;;;31.00;20.10;;;13.30;93.10;;;;;;4973638;28;20423;-75
2022/03/03 11:48:11;;;;;;;26.77;19.10;;;13.20;94.80;;;;;;4966844;28;20434;-76
2022/03/03 11:50:37;;;;;;;30.80;20.20;;;13.20;94.30;;;;;;4974165;28;20416;-76
2022/03/03 11:53:02;;;;;;;29.37;19.80;;;13.10;94.90;;;;;;4973449;28;20939;-76
2022/03/03 11:55:28;;;;;;;28.57;20.90;;;13.10;94.20;;;;;;4973391;28;20479;-76
2022/03/03 11:58:11;;;;;;;32.03;19.70;;;13.20;94.40;;;;;;4973926;28;20684;-76
2022/03/03 12:01:06;;;;;;;30.37;20.50;;;13.20;93.90;;;;;;4973730;28;20211;-76
2022/03/03 12:04:01;;;;;;;33.77;21.33;;;13.00;93.50;;;;;;4973045;28;20470;-76
2022/03/03 12:06:43;;;;;;;30.67;19.37;;;13.00;93.60;;;;;;4973834;28;20502;-76
2022/03/03 12:09:19;;;;;;;34.60;20.90;;;13.20;94.40;;;;;;4973479;28;20832;-77
2022/03/03 12:11:44;;;;;;;37.70;20.53;;;13.30;94.80;;;;;;4973813;28;20427;-75
2022/03/03 12:14:29;;;;;;;37.50;20.00;;;13.50;94.60;;;;;;4973265;28;20423;-75
2022/03/03 12:17:14;;;;;;;34.50;20.30;;;13.50;95.40;;;;;;4974605;28;20596;-76
2022/03/03 12:19:40;;;;;;;26.77;19.37;;;13.60;94.60;;;;;;4995634;28;20447;-75
2022/03/03 12:22:23;;;;;;;28.60;19.40;;;13.60;93.90;;;;;;5010666;28;20520;-75
2022/03/03 12:24:49;;;;;;;29.77;20.90;;;13.40;94.60;;;;;;5010319;28;20183;-75
2022/03/03 12:27:15;;;;;;;27.67;19.50;;;13.30;93.50;;;;;;5011264;28;20416;-75
2022/03/03 12:29:41;;;;;;;30.13;21.17;;;13.30;95.40;;;;;;5011911;28;20182;-74
2022/03/03 12:32:29;;;;;;;29.90;20.53;;;13.10;94.40;;;;;;5011769;28;20483;-75
2022/03/03 12:35:02;;;;;;;31.13;21.40;;;13.00;94.60;;;;;;5011716;28;20171;-76
2022/03/03 12:37:30;;;;;;;31.97;21.37;;;12.60;94.20;;;;;;5012212;28;20512;-76
2022/03/03 12:40:04;;;;;;;28.87;20.03;;;12.70;96.00;;;;;;5011735;28;21075;-75
2022/03/03 12:42:33;;;;;;;33.57;20.73;;;12.70;95.00;;;;;;5012280;28;20430;-75
2022/03/03 12:45:02;;;;;;;34.50;23.40;;;12.60;94.60;;;;;;5011275;28;20925;-75
2022/03/03 12:47:33;;;;;;;29.23;20.20;;;12.50;94.70;;;;;;5011986;28;20472;-75
2022/03/03 12:50:08;;;;;;;34.40;22.87;;;12.50;96.60;;;;;;5012292;28;20798;-75
2022/03/03 12:52:36;;;;;;;34.83;20.13;;;12.60;96.70;;;;;;5011934;28;20461;-75
2022/03/03 12:55:04;;;;;;;40.40;22.10;;;12.50;96.00;;;;;;5011179;28;20417;-75
2022/03/03 12:57:32;;;;;;;34.23;21.23;;;12.30;94.60;;;;;;5012027;28;20422;-75
2022/03/03 12:59:59;;;;;;;31.13;20.13;;;12.10;94.70;;;;;;5011211;28;20420;-75
2022/03/03 13:02:25;;;;;;;32.10;19.27;;;12.10;95.00;;;;;;5011739;28;20445;-75
2022/03/03 13:04:51;;;;;;;36.27;20.97;;;12.10;95.60;;;;;;5010438;28;20429;-75
2022/03/03 13:07:17;;;;;;;35.03;21.03;;;12.00;95.40;;;;;;5012123;28;20473;-75
2022/03/03 13:09:54;;;;;;;34.33;21.93;;;12.00;96.00;;;;;;5011485;28;20183;-75
2022/03/03 13:12:20;;;;;;;34.27;22.27;;;11.90;97.50;;;;;;5012198;28;20479;-75
2022/03/03 13:14:58;;;;;;;32.17;21.60;;;12.10;98.20;;;;;;5008877;28;20462;-75
2022/03/03 13:17:24;;;;;;;36.30;21.73;;;12.20;97.70;;;;;;5011665;28;20175;-73
2022/03/03 13:19:50;;;;;;;33.00;23.13;;;12.20;97.70;;;;;;5011401;28;20900;-74
2022/03/03 13:22:16;;;;;;;34.03;22.93;;;12.10;96.50;;;;;;5011716;28;20195;-75
2022/03/03 13:24:41;;;;;;;39.13;22.10;;;11.90;97.10;;;;;;5012350;28;20549;-74
2022/03/03 13:27:07;;;;;;;32.67;21.53;;;11.80;99.20;;;;;;5012214;28;20672;-75
2022/03/03 13:29:37;;;;;;;33.23;22.00;;;11.80;98.90;;;;;;5011223;28;20667;-76
2022/03/03 13:32:13;;;;;;;43.40;25.60;;;11.90;99.00;;;;;;5011601;28;20245;-75
2022/03/03 13:34:45;;;;;;;36.83;23.60;;;11.90;97.50;;;;;;5010700;28;20425;-75
2022/03/03 13:37:16;;;;;;;39.23;24.27;;;11.80;97.60;;;;;;5011133;28;20409;-75
2022/03/03 13:39:42;;;;;;;35.77;23.87;;;11.70;98.60;;;;;;5011008;28;20525;-75
2022/03/03 13:42:10;;;;;;;33.40;23.17;;;11.70;98.80;;;;;;5010254;28;20505;-75
2022/03/03 13:44:42;;;;;;;35.93;23.37;;;11.70;98.10;;;;;;5010460;28;20244;-75
2022/03/03 13:47:10;;;;;;;37.87;24.80;;;11.50;97.50;;;;;;5011822;28;20413;-75
2022/03/03 13:49:42;;;;;;;36.07;21.30;;;11.40;98.50;;;;;;5010698;28;20414;-76
2022/03/03 13:52:37;;;;;;;34.63;22.37;;;11.40;98.80;;;;;;5011981;28;20507;-75
2022/03/03 13:55:14;;;;;;;31.17;21.40;;;11.30;98.40;;;;;;5002046;28;20938;-75
2022/03/03 13:57:49;;;;;;;36.53;23.23;;;11.30;99.30;;;;;;5010943;28;20409;-75
2022/03/03 14:00:29;;;;;;;41.27;22.63;;;11.30;99.30;;;;;;5010977;28;20432;-75
2022/03/03 14:03:11;;;;;;;37.30;23.50;;;11.30;98.60;;;;;;5010573;28;20446;-76
2022/03/03 14:05:52;;;;;;;35.87;22.10;;;11.20;98.40;;;;;;5010133;28;20420;-74
2022/03/03 14:08:41;;;;;;;39.57;23.40;;;11.00;98.40;;;;;;5011050;28;20463;-75
2022/03/03 14:11:27;;;;;;;35.23;21.27;;;11.00;98.70;;;;;;4999428;28;20470;-75
2022/03/03 14:13:55;;;;;;;34.67;19.93;;;11.00;97.50;;;;;;4983725;28;20489;-75
2022/03/03 14:16:27;;;;;;;35.87;20.70;;;10.90;97.60;;;;;;4902510;28;20819;-73
2022/03/03 14:19:00;;;;;;;35.27;19.20;;;11.00;98.90;;;;;;4886436;28;20592;-79
2022/03/03 14:21:27;;;;;;;33.80;19.63;;;11.00;98.60;;;;;;4913785;28;20955;-81
2022/03/03 14:23:53;;;;;;;31.57;20.03;;;11.10;98.10;;;;;;4915744;28;21025;-76
2022/03/03 14:26:21;;;;;;;31.40;20.90;;;11.00;97.60;;;;;;4882396;28;20706;-78
2022/03/03 14:29:35;;;;;;;29.13;18.17;;;10.90;97.10;;;;;;4888207;28;21256;-78
2022/03/03 14:32:01;;;;;;;28.73;18.17;;;10.90;96.50;;;;;;4871221;28;20817;-78
2022/03/03 14:34:27;;;;;;;29.23;19.47;;;10.90;95.80;;;;;;4904577;28;20831;-77
2022/03/03 14:36:53;;;;;;;33.40;20.53;;;10.90;96.00;;;;;;4900460;28;20886;-78
2022/03/03 14:39:19;;;;;;;28.80;19.60;;;10.90;95.90;;;;;;4902194;28;21077;-79
2022/03/03 14:41:45;;;;;;;31.53;19.00;;;10.90;95.70;;;;;;4903945;28;20704;-77
2022/03/03 14:44:11;;;;;;;27.93;18.87;;;10.80;96.00;;;;;;4899173;28;20761;-81
2022/03/03 14:46:38;;;;;;;32.67;20.77;;;10.80;95.90;;;;;;4899043;28;20902;-83
2022/03/03 14:49:04;;;;;;;28.70;18.13;;;10.70;96.50;;;;;;4901392;28;20598;-82
2022/03/03 14:51:30;;;;;;;35.83;17.57;;;10.70;96.50;;;;;;4898985;28;20774;-82
2022/03/03 14:53:56;;;;;;;29.47;19.93;;;10.80;96.50;;;;;;4895280;28;21198;-81
2022/03/03 14:56:22;;;;;;;30.17;19.27;;;10.70;96.70;;;;;;4896968;28;20797;-82
2022/03/03 14:58:48;;;;;;;29.90;19.60;;;10.70;96.90;;;;;;4900146;28;20763;-81
2022/03/03 15:01:14;;;;;;;23.67;18.60;;;10.70;97.40;;;;;;4903768;28;20469;-81
2022/03/03 15:03:40;;;;;;;25.30;17.77;;;10.50;97.20;;;;;;4910100;28;20850;-82
2022/03/03 15:06:07;;;;;;;29.10;19.30;;;10.50;97.00;;;;;;4898492;28;20998;-83
2022/03/03 15:08:33;;;;;;;26.27;17.93;;;10.40;97.20;;;;;;4899862;28;20620;-83
2022/03/03 15:10:59;;;;;;;28.40;18.00;;;10.40;96.70;;;;;;4905354;28;20888;-83
2022/03/03 15:13:27;;;;;;;26.70;17.20;;;10.30;96.90;;;;;;4910294;28;20619;-80
2022/03/03 15:15:53;;;;;;;35.57;18.57;;;10.30;96.70;;;;;;4900450;28;21291;-81
2022/03/03 15:18:19;;;;;;;24.60;17.00;;;10.30;96.30;;;;;;4867927;28;21014;-81
2022/03/03 15:20:45;;;;;;;27.53;17.50;;;10.30;96.90;;;;;;4901058;28;20507;-81
2022/03/03 15:23:11;;;;;;;24.93;18.23;;;10.30;95.70;;;;;;4902379;28;21151;-78
2022/03/03 15:25:37;;;;;;;28.50;16.07;;;10.20;96.30;;;;;;4898300;28;20910;-77
2022/03/03 15:28:03;;;;;;;26.43;17.30;;;10.20;95.80;;;;;;4911000;28;20436;-76
2022/03/03 15:30:30;;;;;;;21.90;15.87;;;10.30;95.40;;;;;;4901197;28;20711;-77
2022/03/03 15:32:57;;;;;;;29.97;17.27;;;10.20;95.20;;;;;;4903257;28;21176;-78
2022/03/03 15:38:12;;;;;;;29.07;16.70;;;10.20;96.10;;;;;;4905586;28;20893;-76
2022/03/03 15:40:40;;;;;;;24.07;15.90;;;10.20;95.30;;;;;;4906603;28;20751;-76
2022/03/03 15:43:12;;;;;;;27.13;16.80;;;10.20;95.70;;;;;;4921478;28;20753;-80
2022/03/03 15:45:44;;;;;;;20.53;14.90;;;10.10;96.20;;;;;;4911511;28;20742;-78
2022/03/03 15:48:10;;;;;;;23.93;15.20;;;10.10;96.00;;;;;;4904895;28;20793;-76
2022/03/03 15:50:37;;;;;;;28.13;16.43;;;10.10;96.10;;;;;;4903624;28;20651;-77
2022/03/03 15:53:06;;;;;;;20.93;15.30;;;10.00;95.20;;;;;;4904407;28;20789;-78
2022/03/03 15:55:32;;;;;;;22.20;14.40;;;9.90;96.30;;;;;;4907217;28;20779;-77
2022/03/03 15:57:58;;;;;;;21.30;15.00;;;9.90;96.20;;;;;;4903558;28;21195;-76
2022/03/03 16:00:24;;;;;;;21.03;15.53;;;9.80;96.30;;;;;;4904080;28;21079;-79
2022/03/03 16:02:50;;;;;;;24.97;15.13;;;9.80;96.00;;;;;;4907020;28;20472;-78
2022/03/03 16:05:16;;;;;;;24.67;15.70;;;9.80;96.00;;;;;;4905237;28;20775;-79
2022/03/03 16:07:42;;;;;;;24.60;14.70;;;9.70;96.00;;;;;;4905912;28;20891;-79
2022/03/03 16:10:09;;;;;;;22.37;15.73;;;9.70;95.90;;;;;;4907222;28;20816;-81
2022/03/03 16:12:34;;;;;;;20.67;14.77;;;9.70;95.40;;;;;;4900601;28;21243;-78
2022/03/03 16:15:00;;;;;;;22.07;14.23;;;9.60;96.10;;;;;;4878661;28;20809;-79
2022/03/03 16:17:27;;;;;;;22.53;14.70;;;9.60;95.50;;;;;;4881237;28;20497;-78
2022/03/03 16:19:54;;;;;;;21.80;14.30;;;9.60;95.50;;;;;;4883867;28;20867;-79
2022/03/03 16:22:20;;;;;;;19.97;13.50;;;9.50;95.60;;;;;;4887364;28;20633;-78
2022/03/03 16:24:47;;;;;;;23.03;14.20;;;9.50;96.30;;;;;;4882725;28;20810;-78
2022/03/03 16:27:14;;;;;;;18.60;13.03;;;9.40;95.90;;;;;;4893661;28;20983;-78
2022/03/03 16:29:40;;;;;;;20.80;14.30;;;9.40;96.60;;;;;;4889451;28;20793;-75
2022/03/03 16:32:16;;;;;;;21.83;14.57;;;9.20;95.90;;;;;;4883287;28;20740;-78
2022/03/03 16:34:48;;;;;;;26.43;13.10;;;9.20;96.20;;;;;;4877174;28;20649;-79
2022/03/03 16:37:17;;;;;;;20.20;13.90;;;9.10;96.20;;;;;;4881441;28;20701;-78
2022/03/03 16:39:49;;;;;;;24.47;16.60;;;9.00;96.30;;;;;;4880939;28;20812;-78
2022/03/03 16:42:19;;;;;;;24.60;16.40;;;9.00;96.80;;;;;;4901725;28;20845;-79
2022/03/03 16:44:46;;;;;;;22.63;14.20;;;8.90;97.00;;;;;;4882458;28;21216;-75
2022/03/03 16:47:13;;;;;;;22.83;14.17;;;8.80;97.60;;;;;;4882986;28;20725;-78
2022/03/03 16:49:43;;;;;;;20.50;14.37;;;8.70;97.50;;;;;;4880881;28;20700;-77
2022/03/03 16:52:14;;;;;;;19.93;14.43;;;8.60;97.70;;;;;;4894017;28;21001;-78
2022/03/03 16:54:41;;;;;;;21.20;14.70;;;8.60;98.20;;;;;;4896203;28;20686;-77
2022/03/03 16:57:08;;;;;;;20.50;13.83;;;8.50;98.20;;;;;;4890775;28;20906;-78
2022/03/03 16:59:34;;;;;;;20.43;14.53;;;8.40;98.40;;;;;;4887891;28;20637;-76
2022/03/03 17:02:03;;;;;;;25.53;15.13;;;8.30;99.10;;;;;;4882342;28;20830;-75
2022/03/03 17:04:29;;;;;;;17.67;14.43;;;8.30;99.30;;;;;;4899385;28;20785;-77
2022/03/03 17:06:55;;;;;;;23.80;15.63;;;8.20;99.50;;;;;;4952820;28;20472;-75
2022/03/03 17:09:21;;;;;;;22.60;14.30;;;8.10;99.60;;;;;;4977023;28;20426;-75
2022/03/03 17:11:48;;;;;;;22.70;14.80;;;8.00;99.70;;;;;;4970359;28;20488;-75
2022/03/03 17:14:13;;;;;;;19.20;13.80;;;7.90;99.90;;;;;;4953097;28;20423;-75